sensor_id;sensor_type;location;lat;lon;timestamp;P1;durP1;ratioP1;P2;durP2;ratioP2
58308;SDS011;44117;57.142;24.826;2022-09-13T00:01:49;3.42;;;2.90;;
58308;SDS011;44117;57.142;24.826;2022-09-13T00:04:16;2.85;;;2.65;;
58308;SDS011;44117;57.142;24.826;2022-09-13T00:06:43;4.97;;;2.63;;
58308;SDS011;44117;57.142;24.826;2022-09-13T00:09:11;4.03;;;2.80;;
58308;SDS011;44117;57.142;24.826;2022-09-13T00:11:38;2.90;;;2.45;;
58308;SDS011;44117;57.142;24.826;2022-09-13T00:14:06;3.45;;;2.80;;
58308;SDS011;44117;57.142;24.826;2022-09-13T00:16:33;3.10;;;2.83;;
58308;SDS011;44117;57.142;24.826;2022-09-13T00:19:00;4.78;;;2.53;;
58308;SDS011;44117;57.142;24.826;2022-09-13T00:21:28;2.88;;;2.50;;
58308;SDS011;44117;57.142;24.826;2022-09-13T00:23:55;4.03;;;2.50;;
58308;SDS011;44117;57.142;24.826;2022-09-13T00:26:24;3.50;;;2.60;;
58308;SDS011;44117;57.142;24.826;2022-09-13T00:28:54;3.30;;;3.00;;
58308;SDS011;44117;57.142;24.826;2022-09-13T00:31:24;3.65;;;2.90;;
58308;SDS011;44117;57.142;24.826;2022-09-13T00:33:53;3.75;;;2.97;;
58308;SDS011;44117;57.142;24.826;2022-09-13T00:36:21;3.13;;;2.80;;
58308;SDS011;44117;57.142;24.826;2022-09-13T00:38:48;4.20;;;3.25;;
58308;SDS011;44117;57.142;24.826;2022-09-13T00:41:16;3.58;;;3.03;;
58308;SDS011;44117;57.142;24.826;2022-09-13T00:43:49;3.35;;;3.00;;
58308;SDS011;44117;57.142;24.826;2022-09-13T00:46:32;4.43;;;3.47;;
58308;SDS011;44117;57.142;24.826;2022-09-13T00:51:49;3.83;;;3.03;;
58308;SDS011;44117;57.142;24.826;2022-09-13T00:54:21;5.25;;;3.50;;
58308;SDS011;44117;57.142;24.826;2022-09-13T00:56:53;4.70;;;3.40;;
58308;SDS011;44117;57.142;24.826;2022-09-13T00:59:34;5.10;;;2.85;;
58308;SDS011;44117;57.142;24.826;2022-09-13T01:02:07;4.72;;;3.40;;
58308;SDS011;44117;57.142;24.826;2022-09-13T01:04:35;3.38;;;3.03;;
58308;SDS011;44117;57.142;24.826;2022-09-13T01:07:06;3.88;;;2.83;;
58308;SDS011;44117;57.142;24.826;2022-09-13T01:09:38;3.75;;;2.90;;
58308;SDS011;44117;57.142;24.826;2022-09-13T01:15:21;3.28;;;2.50;;
58308;SDS011;44117;57.142;24.826;2022-09-13T01:17:50;3.72;;;2.72;;
58308;SDS011;44117;57.142;24.826;2022-09-13T01:20:20;2.80;;;2.60;;
58308;SDS011;44117;57.142;24.826;2022-09-13T01:23:02;4.05;;;2.85;;
58308;SDS011;44117;57.142;24.826;2022-09-13T01:25:49;3.42;;;2.78;;
58308;SDS011;44117;57.142;24.826;2022-09-13T01:48:35;3.60;;;2.80;;
58308;SDS011;44117;57.142;24.826;2022-09-13T01:51:09;5.30;;;2.90;;
58308;SDS011;44117;57.142;24.826;2022-09-13T01:56:37;3.75;;;2.90;;
58308;SDS011;44117;57.142;24.826;2022-09-13T01:59:15;4.20;;;2.72;;
58308;SDS011;44117;57.142;24.826;2022-09-13T02:02:02;3.05;;;2.60;;
58308;SDS011;44117;57.142;24.826;2022-09-13T02:04:42;3.47;;;2.78;;
58308;SDS011;44117;57.142;24.826;2022-09-13T02:07:18;3.95;;;3.10;;
58308;SDS011;44117;57.142;24.826;2022-09-13T02:10:02;3.78;;;3.03;;
58308;SDS011;44117;57.142;24.826;2022-09-13T02:13:00;4.07;;;2.92;;
58308;SDS011;44117;57.142;24.826;2022-09-13T02:15:36;3.72;;;2.88;;
58308;SDS011;44117;57.142;24.826;2022-09-13T02:18:19;3.35;;;3.05;;
58308;SDS011;44117;57.142;24.826;2022-09-13T02:20:52;5.10;;;3.20;;
58308;SDS011;44117;57.142;24.826;2022-09-13T02:23:27;3.90;;;3.17;;
58308;SDS011;44117;57.142;24.826;2022-09-13T02:26:00;4.05;;;2.40;;
58308;SDS011;44117;57.142;24.826;2022-09-13T02:28:31;5.20;;;2.65;;
58308;SDS011;44117;57.142;24.826;2022-09-13T02:31:07;6.18;;;2.95;;
58308;SDS011;44117;57.142;24.826;2022-09-13T02:33:35;3.47;;;2.97;;
58308;SDS011;44117;57.142;24.826;2022-09-13T02:36:15;3.63;;;2.70;;
58308;SDS011;44117;57.142;24.826;2022-09-13T02:41:45;5.65;;;3.50;;
58308;SDS011;44117;57.142;24.826;2022-09-13T02:44:16;4.93;;;2.80;;
58308;SDS011;44117;57.142;24.826;2022-09-13T02:47:18;3.95;;;3.42;;
58308;SDS011;44117;57.142;24.826;2022-09-13T02:57:37;3.95;;;3.20;;
58308;SDS011;44117;57.142;24.826;2022-09-13T03:00:07;4.80;;;3.20;;
58308;SDS011;44117;57.142;24.826;2022-09-13T03:02:35;4.00;;;3.20;;
58308;SDS011;44117;57.142;24.826;2022-09-13T03:05:05;3.85;;;3.30;;
58308;SDS011;44117;57.142;24.826;2022-09-13T03:07:32;4.28;;;3.47;;
58308;SDS011;44117;57.142;24.826;2022-09-13T03:10:01;4.50;;;3.20;;
58308;SDS011;44117;57.142;24.826;2022-09-13T03:15:32;3.42;;;2.72;;
58308;SDS011;44117;57.142;24.826;2022-09-13T03:24:31;4.78;;;3.20;;
58308;SDS011;44117;57.142;24.826;2022-09-13T03:30:04;7.03;;;4.05;;
58308;SDS011;44117;57.142;24.826;2022-09-13T03:35:37;7.97;;;3.88;;
58308;SDS011;44117;57.142;24.826;2022-09-13T03:38:18;6.47;;;4.32;;
58308;SDS011;44117;57.142;24.826;2022-09-13T03:40:56;7.28;;;4.82;;
58308;SDS011;44117;57.142;24.826;2022-09-13T03:43:38;8.30;;;6.28;;
58308;SDS011;44117;57.142;24.826;2022-09-13T03:46:29;6.75;;;5.47;;
58308;SDS011;44117;57.142;24.826;2022-09-13T03:49:05;8.13;;;3.75;;
58308;SDS011;44117;57.142;24.826;2022-09-13T03:51:34;5.20;;;3.33;;
58308;SDS011;44117;57.142;24.826;2022-09-13T03:54:05;4.90;;;3.10;;
58308;SDS011;44117;57.142;24.826;2022-09-13T03:59:54;6.07;;;3.25;;
58308;SDS011;44117;57.142;24.826;2022-09-13T04:02:23;7.35;;;4.90;;
58308;SDS011;44117;57.142;24.826;2022-09-13T04:04:52;6.13;;;4.60;;
58308;SDS011;44117;57.142;24.826;2022-09-13T04:07:20;6.65;;;4.97;;
58308;SDS011;44117;57.142;24.826;2022-09-13T04:09:49;6.93;;;5.03;;
58308;SDS011;44117;57.142;24.826;2022-09-13T04:12:17;5.80;;;4.80;;
58308;SDS011;44117;57.142;24.826;2022-09-13T04:14:44;10.50;;;5.55;;
58308;SDS011;44117;57.142;24.826;2022-09-13T04:17:12;6.78;;;4.80;;
58308;SDS011;44117;57.142;24.826;2022-09-13T04:19:40;6.60;;;4.78;;
58308;SDS011;44117;57.142;24.826;2022-09-13T04:22:08;11.05;;;8.90;;
58308;SDS011;44117;57.142;24.826;2022-09-13T04:24:35;16.08;;;12.30;;
58308;SDS011;44117;57.142;24.826;2022-09-13T04:27:04;29.27;;;22.50;;
58308;SDS011;44117;57.142;24.826;2022-09-13T04:29:32;23.00;;;16.15;;
58308;SDS011;44117;57.142;24.826;2022-09-13T04:31:59;18.02;;;12.38;;
58308;SDS011;44117;57.142;24.826;2022-09-13T04:34:27;11.30;;;9.65;;
58308;SDS011;44117;57.142;24.826;2022-09-13T04:36:54;10.27;;;8.30;;
58308;SDS011;44117;57.142;24.826;2022-09-13T04:39:22;11.57;;;7.97;;
58308;SDS011;44117;57.142;24.826;2022-09-13T04:41:50;41.38;;;26.75;;
58308;SDS011;44117;57.142;24.826;2022-09-13T04:44:20;13.43;;;10.82;;
58308;SDS011;44117;57.142;24.826;2022-09-13T04:46:48;7.55;;;6.32;;
58308;SDS011;44117;57.142;24.826;2022-09-13T04:49:16;16.10;;;14.30;;
58308;SDS011;44117;57.142;24.826;2022-09-13T04:51:45;15.93;;;13.63;;
58308;SDS011;44117;57.142;24.826;2022-09-13T04:54:13;11.63;;;10.43;;
58308;SDS011;44117;57.142;24.826;2022-09-13T04:56:44;7.47;;;5.82;;
58308;SDS011;44117;57.142;24.826;2022-09-13T04:59:12;9.18;;;6.25;;
58308;SDS011;44117;57.142;24.826;2022-09-13T05:01:40;8.82;;;7.93;;
58308;SDS011;44117;57.142;24.826;2022-09-13T05:04:08;22.50;;;18.55;;
58308;SDS011;44117;57.142;24.826;2022-09-13T05:06:36;25.02;;;21.20;;
58308;SDS011;44117;57.142;24.826;2022-09-13T05:09:03;25.02;;;17.98;;
58308;SDS011;44117;57.142;24.826;2022-09-13T05:11:31;16.45;;;14.93;;
58308;SDS011;44117;57.142;24.826;2022-09-13T05:13:59;17.20;;;15.50;;
58308;SDS011;44117;57.142;24.826;2022-09-13T05:16:28;7.30;;;5.93;;
58308;SDS011;44117;57.142;24.826;2022-09-13T05:18:57;13.73;;;11.98;;
58308;SDS011;44117;57.142;24.826;2022-09-13T05:21:26;11.75;;;10.07;;
58308;SDS011;44117;57.142;24.826;2022-09-13T05:23:54;16.80;;;14.43;;
58308;SDS011;44117;57.142;24.826;2022-09-13T05:26:23;23.73;;;21.30;;
58308;SDS011;44117;57.142;24.826;2022-09-13T05:28:52;17.23;;;14.80;;
58308;SDS011;44117;57.142;24.826;2022-09-13T05:31:20;15.02;;;12.35;;
58308;SDS011;44117;57.142;24.826;2022-09-13T05:33:55;20.83;;;18.63;;
58308;SDS011;44117;57.142;24.826;2022-09-13T05:36:27;15.40;;;10.97;;
58308;SDS011;44117;57.142;24.826;2022-09-13T05:38:54;24.52;;;22.35;;
58308;SDS011;44117;57.142;24.826;2022-09-13T05:41:43;9.43;;;7.05;;
58308;SDS011;44117;57.142;24.826;2022-09-13T05:44:11;20.40;;;18.60;;
58308;SDS011;44117;57.142;24.826;2022-09-13T05:46:39;11.63;;;7.97;;
58308;SDS011;44117;57.142;24.826;2022-09-13T05:49:08;14.65;;;11.32;;
58308;SDS011;44117;57.142;24.826;2022-09-13T05:51:38;14.13;;;12.73;;
58308;SDS011;44117;57.142;24.826;2022-09-13T05:54:05;12.27;;;9.18;;
58308;SDS011;44117;57.142;24.826;2022-09-13T05:56:32;16.40;;;14.85;;
58308;SDS011;44117;57.142;24.826;2022-09-13T05:59:00;12.98;;;11.68;;
58308;SDS011;44117;57.142;24.826;2022-09-13T06:01:27;13.35;;;11.35;;
58308;SDS011;44117;57.142;24.826;2022-09-13T06:03:56;11.65;;;7.75;;
58308;SDS011;44117;57.142;24.826;2022-09-13T06:06:24;14.25;;;10.23;;
58308;SDS011;44117;57.142;24.826;2022-09-13T06:08:55;11.20;;;7.95;;
58308;SDS011;44117;57.142;24.826;2022-09-13T06:11:23;11.55;;;10.45;;
58308;SDS011;44117;57.142;24.826;2022-09-13T06:13:54;9.45;;;8.38;;
58308;SDS011;44117;57.142;24.826;2022-09-13T06:16:22;8.52;;;6.70;;
58308;SDS011;44117;57.142;24.826;2022-09-13T06:18:50;8.07;;;6.30;;
58308;SDS011;44117;57.142;24.826;2022-09-13T06:21:18;7.45;;;5.22;;
58308;SDS011;44117;57.142;24.826;2022-09-13T06:23:54;8.05;;;4.97;;
58308;SDS011;44117;57.142;24.826;2022-09-13T06:26:26;7.18;;;5.30;;
58308;SDS011;44117;57.142;24.826;2022-09-13T06:28:54;7.32;;;5.68;;
58308;SDS011;44117;57.142;24.826;2022-09-13T06:31:25;8.45;;;5.38;;
58308;SDS011;44117;57.142;24.826;2022-09-13T06:33:57;5.80;;;4.38;;
58308;SDS011;44117;57.142;24.826;2022-09-13T06:36:29;7.13;;;4.82;;
58308;SDS011;44117;57.142;24.826;2022-09-13T06:38:57;6.15;;;4.70;;
58308;SDS011;44117;57.142;24.826;2022-09-13T06:41:26;5.43;;;4.30;;
58308;SDS011;44117;57.142;24.826;2022-09-13T06:43:54;6.18;;;5.00;;
58308;SDS011;44117;57.142;24.826;2022-09-13T06:46:24;5.10;;;4.45;;
58308;SDS011;44117;57.142;24.826;2022-09-13T06:48:53;8.05;;;4.97;;
58308;SDS011;44117;57.142;24.826;2022-09-13T06:51:23;5.50;;;4.30;;
58308;SDS011;44117;57.142;24.826;2022-09-13T06:53:51;6.15;;;4.57;;
58308;SDS011;44117;57.142;24.826;2022-09-13T06:56:32;5.78;;;4.47;;
58308;SDS011;44117;57.142;24.826;2022-09-13T06:59:01;10.00;;;8.13;;
58308;SDS011;44117;57.142;24.826;2022-09-13T07:01:32;6.53;;;4.35;;
58308;SDS011;44117;57.142;24.826;2022-09-13T07:04:05;8.55;;;6.00;;
58308;SDS011;44117;57.142;24.826;2022-09-13T07:06:35;7.95;;;4.75;;
58308;SDS011;44117;57.142;24.826;2022-09-13T07:09:06;14.85;;;8.35;;
58308;SDS011;44117;57.142;24.826;2022-09-13T07:11:36;17.25;;;12.23;;
58308;SDS011;44117;57.142;24.826;2022-09-13T07:14:06;14.02;;;8.80;;
58308;SDS011;44117;57.142;24.826;2022-09-13T07:16:35;12.38;;;7.85;;
58308;SDS011;44117;57.142;24.826;2022-09-13T07:19:04;12.30;;;9.07;;
58308;SDS011;44117;57.142;24.826;2022-09-13T07:21:34;10.15;;;7.40;;
58308;SDS011;44117;57.142;24.826;2022-09-13T07:24:02;6.85;;;6.05;;
58308;SDS011;44117;57.142;24.826;2022-09-13T07:26:30;10.75;;;7.35;;
58308;SDS011;44117;57.142;24.826;2022-09-13T07:28:58;6.45;;;4.53;;
58308;SDS011;44117;57.142;24.826;2022-09-13T07:31:32;7.70;;;5.95;;
58308;SDS011;44117;57.142;24.826;2022-09-13T07:34:06;7.10;;;4.78;;
58308;SDS011;44117;57.142;24.826;2022-09-13T07:36:37;9.23;;;5.45;;
58308;SDS011;44117;57.142;24.826;2022-09-13T07:39:04;14.88;;;10.30;;
58308;SDS011;44117;57.142;24.826;2022-09-13T07:41:37;7.03;;;5.53;;
58308;SDS011;44117;57.142;24.826;2022-09-13T07:44:05;16.70;;;11.02;;
58308;SDS011;44117;57.142;24.826;2022-09-13T07:46:33;6.90;;;5.53;;
58308;SDS011;44117;57.142;24.826;2022-09-13T07:49:05;9.32;;;6.15;;
58308;SDS011;44117;57.142;24.826;2022-09-13T07:51:34;7.70;;;5.40;;
58308;SDS011;44117;57.142;24.826;2022-09-13T07:54:05;15.43;;;9.52;;
58308;SDS011;44117;57.142;24.826;2022-09-13T07:56:36;4.05;;;3.10;;
58308;SDS011;44117;57.142;24.826;2022-09-13T07:59:06;5.80;;;3.90;;
58308;SDS011;44117;57.142;24.826;2022-09-13T08:01:41;6.53;;;3.40;;
58308;SDS011;44117;57.142;24.826;2022-09-13T08:04:18;4.97;;;3.10;;
58308;SDS011;44117;57.142;24.826;2022-09-13T08:06:49;4.35;;;3.30;;
58308;SDS011;44117;57.142;24.826;2022-09-13T08:09:17;8.10;;;5.10;;
58308;SDS011;44117;57.142;24.826;2022-09-13T08:11:45;6.32;;;5.18;;
58308;SDS011;44117;57.142;24.826;2022-09-13T08:14:15;4.75;;;3.65;;
58308;SDS011;44117;57.142;24.826;2022-09-13T08:16:44;8.25;;;6.80;;
58308;SDS011;44117;57.142;24.826;2022-09-13T08:19:12;4.38;;;3.83;;
58308;SDS011;44117;57.142;24.826;2022-09-13T08:21:41;5.55;;;4.82;;
58308;SDS011;44117;57.142;24.826;2022-09-13T08:24:14;5.10;;;4.10;;
58308;SDS011;44117;57.142;24.826;2022-09-13T08:26:43;4.03;;;3.43;;
58308;SDS011;44117;57.142;24.826;2022-09-13T08:29:11;4.70;;;4.20;;
58308;SDS011;44117;57.142;24.826;2022-09-13T08:31:38;4.18;;;3.70;;
58308;SDS011;44117;57.142;24.826;2022-09-13T08:34:07;4.47;;;3.85;;
58308;SDS011;44117;57.142;24.826;2022-09-13T08:36:37;7.20;;;3.75;;
58308;SDS011;44117;57.142;24.826;2022-09-13T08:39:07;5.32;;;3.30;;
58308;SDS011;44117;57.142;24.826;2022-09-13T08:46:43;3.75;;;3.40;;
58308;SDS011;44117;57.142;24.826;2022-09-13T08:49:14;5.15;;;4.38;;
58308;SDS011;44117;57.142;24.826;2022-09-13T08:51:50;5.10;;;4.22;;
58308;SDS011;44117;57.142;24.826;2022-09-13T08:54:21;4.85;;;4.30;;
58308;SDS011;44117;57.142;24.826;2022-09-13T09:07:59;5.05;;;4.10;;
58308;SDS011;44117;57.142;24.826;2022-09-13T09:15:52;11.70;;;8.85;;
58308;SDS011;44117;57.142;24.826;2022-09-13T09:18:25;8.90;;;6.40;;
58308;SDS011;44117;57.142;24.826;2022-09-13T09:20:57;7.03;;;5.35;;
58308;SDS011;44117;57.142;24.826;2022-09-13T09:29:16;6.38;;;5.30;;
58308;SDS011;44117;57.142;24.826;2022-09-13T09:31:53;8.40;;;7.10;;
58308;SDS011;44117;57.142;24.826;2022-09-13T09:40:48;7.85;;;5.22;;
58308;SDS011;44117;57.142;24.826;2022-09-13T09:43:21;6.25;;;5.03;;
58308;SDS011;44117;57.142;24.826;2022-09-13T09:45:52;6.88;;;5.22;;
58308;SDS011;44117;57.142;24.826;2022-09-13T09:48:23;4.43;;;3.72;;
58308;SDS011;44117;57.142;24.826;2022-09-13T09:50:55;5.20;;;4.25;;
58308;SDS011;44117;57.142;24.826;2022-09-13T09:53:34;4.70;;;3.40;;
58308;SDS011;44117;57.142;24.826;2022-09-13T09:58:52;5.60;;;3.17;;
58308;SDS011;44117;57.142;24.826;2022-09-13T10:01:28;4.68;;;3.65;;
58308;SDS011;44117;57.142;24.826;2022-09-13T10:04:05;3.45;;;3.15;;
58308;SDS011;44117;57.142;24.826;2022-09-13T10:06:44;3.72;;;2.40;;
58308;SDS011;44117;57.142;24.826;2022-09-13T10:19:39;3.65;;;3.13;;
58308;SDS011;44117;57.142;24.826;2022-09-13T10:22:11;6.70;;;5.13;;
58308;SDS011;44117;57.142;24.826;2022-09-13T10:24:38;7.07;;;5.00;;
58308;SDS011;44117;57.142;24.826;2022-09-13T10:27:17;4.35;;;3.55;;
58308;SDS011;44117;57.142;24.826;2022-09-13T10:29:58;3.35;;;2.00;;
58308;SDS011;44117;57.142;24.826;2022-09-13T10:32:27;3.47;;;2.92;;
58308;SDS011;44117;57.142;24.826;2022-09-13T10:34:57;2.35;;;2.10;;
58308;SDS011;44117;57.142;24.826;2022-09-13T10:37:36;4.18;;;2.70;;
58308;SDS011;44117;57.142;24.826;2022-09-13T10:40:11;5.07;;;3.25;;
58308;SDS011;44117;57.142;24.826;2022-09-13T10:42:55;2.80;;;2.20;;
58308;SDS011;44117;57.142;24.826;2022-09-13T10:45:26;2.67;;;2.00;;
58308;SDS011;44117;57.142;24.826;2022-09-13T10:48:02;3.95;;;2.22;;
58308;SDS011;44117;57.142;24.826;2022-09-13T10:50:36;3.40;;;2.28;;
58308;SDS011;44117;57.142;24.826;2022-09-13T10:53:03;2.22;;;2.00;;
58308;SDS011;44117;57.142;24.826;2022-09-13T10:55:53;2.03;;;1.80;;
58308;SDS011;44117;57.142;24.826;2022-09-13T10:58:21;1.92;;;1.80;;
58308;SDS011;44117;57.142;24.826;2022-09-13T11:03:40;1.90;;;1.80;;
58308;SDS011;44117;57.142;24.826;2022-09-13T11:09:32;2.63;;;1.73;;
58308;SDS011;44117;57.142;24.826;2022-09-13T11:20:56;2.15;;;1.65;;
58308;SDS011;44117;57.142;24.826;2022-09-13T11:23:55;1.88;;;1.75;;
58308;SDS011;44117;57.142;24.826;2022-09-13T11:32:15;2.22;;;1.70;;
58308;SDS011;44117;57.142;24.826;2022-09-13T11:37:51;2.50;;;2.00;;
58308;SDS011;44117;57.142;24.826;2022-09-13T11:46:06;8.07;;;5.20;;
58308;SDS011;44117;57.142;24.826;2022-09-13T11:54:36;2.55;;;2.05;;
58308;SDS011;44117;57.142;24.826;2022-09-13T11:57:14;1.90;;;1.70;;
58308;SDS011;44117;57.142;24.826;2022-09-13T11:59:48;2.15;;;1.92;;
58308;SDS011;44117;57.142;24.826;2022-09-13T12:05:22;1.88;;;1.77;;
58308;SDS011;44117;57.142;24.826;2022-09-13T12:08:17;2.05;;;1.85;;
58308;SDS011;44117;57.142;24.826;2022-09-13T12:10:51;1.88;;;1.73;;
58308;SDS011;44117;57.142;24.826;2022-09-13T12:13:25;2.08;;;1.88;;
58308;SDS011;44117;57.142;24.826;2022-09-13T12:15:58;2.35;;;2.08;;
58308;SDS011;44117;57.142;24.826;2022-09-13T12:18:45;2.10;;;1.90;;
58308;SDS011;44117;57.142;24.826;2022-09-13T12:21:19;3.42;;;2.00;;
58308;SDS011;44117;57.142;24.826;2022-09-13T12:24:03;2.88;;;1.67;;
58308;SDS011;44117;57.142;24.826;2022-09-13T12:26:40;2.17;;;1.80;;
58308;SDS011;44117;57.142;24.826;2022-09-13T12:29:22;2.10;;;1.88;;
58308;SDS011;44117;57.142;24.826;2022-09-13T12:31:56;3.35;;;2.00;;
58308;SDS011;44117;57.142;24.826;2022-09-13T12:34:30;2.88;;;2.03;;
58308;SDS011;44117;57.142;24.826;2022-09-13T12:37:27;2.60;;;1.85;;
58308;SDS011;44117;57.142;24.826;2022-09-13T12:45:51;3.50;;;1.95;;
58308;SDS011;44117;57.142;24.826;2022-09-13T12:51:27;2.00;;;1.80;;
58308;SDS011;44117;57.142;24.826;2022-09-13T12:54:22;2.08;;;1.40;;
58308;SDS011;44117;57.142;24.826;2022-09-13T13:00:09;2.13;;;1.52;;
58308;SDS011;44117;57.142;24.826;2022-09-13T13:02:42;2.92;;;1.60;;
58308;SDS011;44117;57.142;24.826;2022-09-13T13:07:57;1.52;;;1.38;;
58308;SDS011;44117;57.142;24.826;2022-09-13T13:10:31;1.67;;;1.10;;
58308;SDS011;44117;57.142;24.826;2022-09-13T13:13:11;1.60;;;1.43;;
58308;SDS011;44117;57.142;24.826;2022-09-13T13:26:08;2.65;;;1.60;;
58308;SDS011;44117;57.142;24.826;2022-09-13T13:29:09;2.45;;;1.55;;
58308;SDS011;44117;57.142;24.826;2022-09-13T13:31:39;1.50;;;1.40;;
58308;SDS011;44117;57.142;24.826;2022-09-13T13:41:51;7.40;;;5.03;;
58308;SDS011;44117;57.142;24.826;2022-09-13T13:57:27;1.88;;;1.70;;
58308;SDS011;44117;57.142;24.826;2022-09-13T14:11:12;2.75;;;1.60;;
58308;SDS011;44117;57.142;24.826;2022-09-13T14:19:42;1.75;;;1.63;;
58308;SDS011;44117;57.142;24.826;2022-09-13T14:22:22;2.20;;;1.80;;
58308;SDS011;44117;57.142;24.826;2022-09-13T14:24:57;6.53;;;5.80;;
58308;SDS011;44117;57.142;24.826;2022-09-13T14:27:38;7.50;;;6.07;;
58308;SDS011;44117;57.142;24.826;2022-09-13T14:30:17;3.22;;;2.60;;
58308;SDS011;44117;57.142;24.826;2022-09-13T14:32:46;3.08;;;1.83;;
58308;SDS011;44117;57.142;24.826;2022-09-13T14:35:28;2.78;;;2.10;;
58308;SDS011;44117;57.142;24.826;2022-09-13T14:38:15;3.42;;;2.30;;
58308;SDS011;44117;57.142;24.826;2022-09-13T14:40:47;3.45;;;2.72;;
58308;SDS011;44117;57.142;24.826;2022-09-13T14:43:17;4.32;;;2.40;;
58308;SDS011;44117;57.142;24.826;2022-09-13T14:45:54;3.63;;;2.40;;
58308;SDS011;44117;57.142;24.826;2022-09-13T14:48:29;2.15;;;1.75;;
58308;SDS011;44117;57.142;24.826;2022-09-13T14:51:02;3.67;;;1.70;;
58308;SDS011;44117;57.142;24.826;2022-09-13T14:53:35;2.28;;;1.77;;
58308;SDS011;44117;57.142;24.826;2022-09-13T14:56:05;2.95;;;1.80;;
58308;SDS011;44117;57.142;24.826;2022-09-13T14:58:42;2.45;;;1.67;;
58308;SDS011;44117;57.142;24.826;2022-09-13T15:01:16;4.90;;;2.05;;
58308;SDS011;44117;57.142;24.826;2022-09-13T15:03:48;3.80;;;2.85;;
58308;SDS011;44117;57.142;24.826;2022-09-13T15:06:21;6.40;;;5.72;;
58308;SDS011;44117;57.142;24.826;2022-09-13T15:08:51;11.43;;;10.32;;
58308;SDS011;44117;57.142;24.826;2022-09-13T15:11:33;10.68;;;9.57;;
58308;SDS011;44117;57.142;24.826;2022-09-13T15:14:24;16.00;;;14.40;;
58308;SDS011;44117;57.142;24.826;2022-09-13T15:16:53;15.07;;;13.00;;
58308;SDS011;44117;57.142;24.826;2022-09-13T15:19:38;15.90;;;13.30;;
58308;SDS011;44117;57.142;24.826;2022-09-13T15:22:50;12.77;;;11.30;;
58308;SDS011;44117;57.142;24.826;2022-09-13T15:24:59;8.55;;;7.10;;
58308;SDS011;44117;57.142;24.826;2022-09-13T15:27:28;7.05;;;4.75;;
58308;SDS011;44117;57.142;24.826;2022-09-13T15:29:58;5.60;;;3.95;;
58308;SDS011;44117;57.142;24.826;2022-09-13T15:32:33;6.43;;;4.60;;
58308;SDS011;44117;57.142;24.826;2022-09-13T15:38:17;9.07;;;8.18;;
58308;SDS011;44117;57.142;24.826;2022-09-13T15:43:38;5.13;;;4.03;;
58308;SDS011;44117;57.142;24.826;2022-09-13T15:46:05;4.93;;;3.70;;
58308;SDS011;44117;57.142;24.826;2022-09-13T15:48:37;7.65;;;4.80;;
58308;SDS011;44117;57.142;24.826;2022-09-13T15:51:14;5.25;;;4.05;;
58308;SDS011;44117;57.142;24.826;2022-09-13T15:53:42;6.90;;;5.53;;
58308;SDS011;44117;57.142;24.826;2022-09-13T15:56:53;5.72;;;4.45;;
58308;SDS011;44117;57.142;24.826;2022-09-13T15:59:05;14.63;;;10.00;;
58308;SDS011;44117;57.142;24.826;2022-09-13T16:01:32;5.65;;;4.32;;
58308;SDS011;44117;57.142;24.826;2022-09-13T16:04:00;4.30;;;3.33;;
58308;SDS011;44117;57.142;24.826;2022-09-13T16:06:29;3.42;;;2.95;;
58308;SDS011;44117;57.142;24.826;2022-09-13T16:08:56;8.10;;;2.83;;
58308;SDS011;44117;57.142;24.826;2022-09-13T16:11:26;5.28;;;3.22;;
58308;SDS011;44117;57.142;24.826;2022-09-13T16:13:53;6.07;;;3.28;;
58308;SDS011;44117;57.142;24.826;2022-09-13T16:16:20;3.90;;;3.17;;
58308;SDS011;44117;57.142;24.826;2022-09-13T16:18:48;4.10;;;2.90;;
58308;SDS011;44117;57.142;24.826;2022-09-13T16:21:15;4.32;;;3.00;;
58308;SDS011;44117;57.142;24.826;2022-09-13T16:23:42;4.22;;;3.00;;
58308;SDS011;44117;57.142;24.826;2022-09-13T16:26:10;5.40;;;3.95;;
58308;SDS011;44117;57.142;24.826;2022-09-13T16:28:37;5.47;;;3.50;;
58308;SDS011;44117;57.142;24.826;2022-09-13T16:31:04;7.20;;;3.65;;
58308;SDS011;44117;57.142;24.826;2022-09-13T16:33:32;6.15;;;3.92;;
58308;SDS011;44117;57.142;24.826;2022-09-13T16:36:00;8.90;;;5.03;;
58308;SDS011;44117;57.142;24.826;2022-09-13T16:38:27;7.32;;;4.47;;
58308;SDS011;44117;57.142;24.826;2022-09-13T16:40:55;5.28;;;4.30;;
58308;SDS011;44117;57.142;24.826;2022-09-13T16:43:22;8.27;;;4.55;;
58308;SDS011;44117;57.142;24.826;2022-09-13T16:45:49;7.00;;;4.07;;
58308;SDS011;44117;57.142;24.826;2022-09-13T16:48:17;5.90;;;4.38;;
58308;SDS011;44117;57.142;24.826;2022-09-13T16:50:44;6.97;;;3.30;;
58308;SDS011;44117;57.142;24.826;2022-09-13T16:53:11;8.45;;;4.70;;
58308;SDS011;44117;57.142;24.826;2022-09-13T16:55:39;14.50;;;10.38;;
58308;SDS011;44117;57.142;24.826;2022-09-13T16:58:06;11.77;;;8.40;;
58308;SDS011;44117;57.142;24.826;2022-09-13T17:00:33;14.32;;;9.43;;
58308;SDS011;44117;57.142;24.826;2022-09-13T17:03:00;11.90;;;9.05;;
58308;SDS011;44117;57.142;24.826;2022-09-13T17:05:28;8.85;;;7.35;;
58308;SDS011;44117;57.142;24.826;2022-09-13T17:07:56;9.07;;;5.55;;
58308;SDS011;44117;57.142;24.826;2022-09-13T17:10:23;9.32;;;7.25;;
58308;SDS011;44117;57.142;24.826;2022-09-13T17:12:50;7.85;;;5.13;;
58308;SDS011;44117;57.142;24.826;2022-09-13T17:15:18;8.15;;;5.38;;
58308;SDS011;44117;57.142;24.826;2022-09-13T17:17:45;6.97;;;5.03;;
58308;SDS011;44117;57.142;24.826;2022-09-13T17:20:13;13.93;;;6.07;;
58308;SDS011;44117;57.142;24.826;2022-09-13T17:22:41;9.10;;;6.22;;
58308;SDS011;44117;57.142;24.826;2022-09-13T17:25:08;9.18;;;5.50;;
58308;SDS011;44117;57.142;24.826;2022-09-13T17:27:36;12.35;;;9.15;;
58308;SDS011;44117;57.142;24.826;2022-09-13T17:30:03;15.40;;;10.63;;
58308;SDS011;44117;57.142;24.826;2022-09-13T17:32:32;17.33;;;12.43;;
58308;SDS011;44117;57.142;24.826;2022-09-13T17:34:59;12.65;;;9.05;;
58308;SDS011;44117;57.142;24.826;2022-09-13T17:37:27;12.88;;;10.23;;
58308;SDS011;44117;57.142;24.826;2022-09-13T17:39:54;10.02;;;7.82;;
58308;SDS011;44117;57.142;24.826;2022-09-13T17:42:21;11.90;;;8.07;;
58308;SDS011;44117;57.142;24.826;2022-09-13T17:44:49;7.47;;;5.43;;
58308;SDS011;44117;57.142;24.826;2022-09-13T17:47:16;8.32;;;4.80;;
58308;SDS011;44117;57.142;24.826;2022-09-13T17:49:43;6.35;;;4.93;;
58308;SDS011;44117;57.142;24.826;2022-09-13T17:52:12;6.57;;;4.45;;
58308;SDS011;44117;57.142;24.826;2022-09-13T17:54:39;5.90;;;4.35;;
58308;SDS011;44117;57.142;24.826;2022-09-13T17:57:07;6.20;;;4.72;;
58308;SDS011;44117;57.142;24.826;2022-09-13T17:59:37;6.55;;;5.40;;
58308;SDS011;44117;57.142;24.826;2022-09-13T18:02:04;6.38;;;5.32;;
58308;SDS011;44117;57.142;24.826;2022-09-13T18:04:32;27.85;;;19.63;;
58308;SDS011;44117;57.142;24.826;2022-09-13T18:06:59;20.17;;;14.25;;
58308;SDS011;44117;57.142;24.826;2022-09-13T18:09:27;13.82;;;12.35;;
58308;SDS011;44117;57.142;24.826;2022-09-13T18:11:54;10.15;;;7.97;;
58308;SDS011;44117;57.142;24.826;2022-09-13T18:14:21;18.50;;;15.20;;
58308;SDS011;44117;57.142;24.826;2022-09-13T18:16:49;16.25;;;11.02;;
58308;SDS011;44117;57.142;24.826;2022-09-13T18:19:21;20.45;;;15.00;;
58308;SDS011;44117;57.142;24.826;2022-09-13T18:22:08;18.83;;;14.75;;
58308;SDS011;44117;57.142;24.826;2022-09-13T18:24:36;19.40;;;17.30;;
58308;SDS011;44117;57.142;24.826;2022-09-13T18:27:03;18.00;;;15.25;;
58308;SDS011;44117;57.142;24.826;2022-09-13T18:29:31;11.35;;;10.15;;